Pagrindinis puslapis
METAR-TAF:

METAR-TAF

Oro uostai :

Brønnøysund, Norvegija

platuma: 65-28N, ilguma: 012-13E, Aukštis: 0 m

Dabartinis oras

Ataskaita buvo paskelbta 38 minutes, ne 19:20 UTC
Vėjas 9 kt iš Vakarų/Šiaurės Vakarų, svyruoja nuo Vakarų ir Šiaurės Vakarų
Temperatūra 8°C
Drėgmė 76%
Slėgis 1001 hPa
Matomumas 10 km arba daugiau
Išsisklaidę debesys ne aukštis 2400 ft
Su prošvaistėmis ne aukštis 4500 ft
Liūtis kaimynystėje

METAR: ENBN 231920Z 29009KT 260V320 9999 VCSH SCT024 BKN045 08/04 Q1001

Laikas: 21:58 (19:58 UTC)

Prognozė

Ataskaita buvo paskelbta 2 valandos ir 58 minutes, ne 17:00 UTC
Prognozė galioja nuo 23 metu 18 UTC su 24 metu 03 UTC
Vėjas 10 kt iš Vakarų
Matomumas 10 km arba daugiau
Išsisklaidę debesys ne aukštis 2000 ft, aukštai iškilę kamuoliniai debesys.
Su prošvaistėmis ne aukštis 3000 ft
lietus
Tapsmas
nuo 23 metu 19 UTC su 23 metu 21 UTC
Vėjas 8 kt iš Šiaurės/Šiaurės Vakarų

TAF: ENBN 231700Z 2318/2403 27010KT 9999 -RA SCT020TCU BKN030 BECMG 2319/2321 34008KT

Orai ataskaitas ir orų prognozės (METAR, TAF).

turimą stotys yra geltonos ir raudonos taškus žemėlapyje.

Perkelti pele per norėdami pamatyti stoties vardą.

Tada spustelėkite, norėdami matyti oro stebėjimo ir prognozės.

Norėdami pakeisti žemėlapį: spustelėkite ant žalios mygtukų su juodo kryžiaus žemyn,; žalią mygtuką su brūkšneliu, jei norite nutolinti; arba žalių rodyklių gretimoms žemėlapius.


METAR-TAF: